Time;durP1;ratioP1;P1;durP2;ratioP2;P2;SDS_P1;SDS_P2;PMS_P1;PMS_P2;Temp;Humidity;BMP_temperature;BMP_pressure;BME280_temperature;BME280_humidity;BME280_pressure;Samples;Min_cycle;Max_cycle;Signal;HPM_P1;HPM_P2
2022/01/30 00:00:49;;;;;;;30.65;5.13;;;6.90;99.90;;;;;;5051241;28;20041;-73
2022/01/30 00:03:15;;;;;;;19.73;3.88;;;6.80;99.90;;;;;;5050863;28;20056;-74
2022/01/30 00:05:41;;;;;;;26.15;4.90;;;6.80;99.90;;;;;;5051525;28;20037;-73
2022/01/30 00:08:07;;;;;;;19.15;4.20;;;6.80;99.90;;;;;;5052734;28;20087;-73
2022/01/30 00:10:38;;;;;;;29.23;5.13;;;6.80;99.90;;;;;;5051037;28;20080;-74
2022/01/30 00:13:06;;;;;;;20.30;4.72;;;6.90;99.90;;;;;;5049208;28;20044;-73
2022/01/30 00:15:39;;;;;;;21.35;4.20;;;6.90;99.90;;;;;;5051045;28;20430;-73
2022/01/30 00:18:28;;;;;;;27.55;4.53;;;6.80;99.90;;;;;;5082370;28;20647;-73
2022/01/30 00:21:08;;;;;;;26.90;3.97;;;6.90;99.90;;;;;;5051278;28;20500;-73
2022/01/30 00:23:37;;;;;;;21.52;4.28;;;6.80;99.90;;;;;;5051775;28;20059;-74
2022/01/30 00:26:05;;;;;;;25.58;4.18;;;6.90;99.90;;;;;;5083574;28;20544;-73
2022/01/30 00:28:32;;;;;;;22.58;4.38;;;6.90;99.90;;;;;;5050044;28;20047;-73
2022/01/30 00:30:58;;;;;;;20.23;3.83;;;6.80;99.90;;;;;;5051832;28;20044;-73
2022/01/30 00:33:24;;;;;;;23.75;3.22;;;6.80;99.90;;;;;;5049245;28;20049;-73
2022/01/30 00:35:50;;;;;;;22.63;4.15;;;6.80;99.90;;;;;;5041393;28;20060;-73
2022/01/30 00:38:18;;;;;;;25.02;4.05;;;6.80;99.90;;;;;;5050745;28;20057;-74
2022/01/30 00:40:45;;;;;;;29.50;4.65;;;6.80;99.90;;;;;;5050547;28;20053;-74
2022/01/30 00:43:11;;;;;;;27.88;4.88;;;6.70;99.90;;;;;;5051614;28;20068;-74
2022/01/30 00:45:37;;;;;;;26.13;3.83;;;6.70;99.90;;;;;;5051490;28;20032;-74
2022/01/30 00:48:03;;;;;;;16.05;3.60;;;6.70;99.90;;;;;;5050108;28;20901;-73
2022/01/30 00:50:29;;;;;;;22.10;3.47;;;6.70;99.90;;;;;;5049697;28;20047;-74
2022/01/30 00:52:55;;;;;;;22.98;4.38;;;6.70;99.90;;;;;;5049507;28;20045;-74
2022/01/30 00:55:25;;;;;;;22.77;4.75;;;6.70;99.90;;;;;;5048256;28;20060;-73
2022/01/30 00:57:51;;;;;;;19.98;5.95;;;6.70;99.90;;;;;;5065312;28;20369;-74
2022/01/30 01:00:17;;;;;;;21.33;4.47;;;6.70;99.90;;;;;;5051338;28;20084;-74
2022/01/30 01:02:46;;;;;;;17.33;2.65;;;6.70;99.90;;;;;;5050495;28;20118;-73
2022/01/30 01:05:13;;;;;;;15.90;2.92;;;6.50;99.90;;;;;;5050345;28;20033;-73
2022/01/30 01:07:43;;;;;;;19.30;3.22;;;6.40;99.90;;;;;;5049151;28;20549;-73
2022/01/30 01:25:53;;;;;;;27.55;4.50;;;5.80;99.90;;;;;;5050121;28;20059;-73
2022/01/30 01:28:19;;;;;;;23.00;4.28;;;5.80;99.90;;;;;;5048052;28;20537;-73
2022/01/30 01:30:45;;;;;;;21.15;4.50;;;5.80;99.90;;;;;;5050799;28;20029;-73
2022/01/30 01:33:11;;;;;;;22.58;4.10;;;5.80;99.90;;;;;;5048375;28;20056;-73
2022/01/30 01:35:37;;;;;;;26.83;3.78;;;5.80;99.90;;;;;;5049712;28;20068;-73
2022/01/30 01:38:04;;;;;;;26.80;4.88;;;5.70;99.90;;;;;;5048466;28;20142;-73
2022/01/30 01:40:30;;;;;;;22.38;3.72;;;5.70;99.90;;;;;;5050457;28;20056;-74
2022/01/30 01:43:00;;;;;;;24.35;3.83;;;5.70;99.90;;;;;;5064746;28;20041;-73
2022/01/30 01:45:33;;;;;;;20.83;4.32;;;5.70;99.90;;;;;;5047272;28;20048;-73
2022/01/30 01:48:02;;;;;;;17.42;3.15;;;5.70;99.90;;;;;;5048595;28;20059;-74
2022/01/30 01:50:38;;;;;;;26.67;4.55;;;5.60;99.90;;;;;;5049233;28;20041;-73
2022/01/30 01:53:07;;;;;;;22.25;4.15;;;5.70;99.90;;;;;;5048170;28;20053;-73
2022/01/30 01:55:32;;;;;;;24.13;3.83;;;5.60;99.90;;;;;;5081486;28;20048;-73
2022/01/30 01:57:58;;;;;;;29.73;4.18;;;5.80;99.90;;;;;;5050005;28;20477;-73
2022/01/30 02:00:24;;;;;;;24.05;4.03;;;5.70;99.90;;;;;;5047366;28;20033;-73
2022/01/30 02:02:49;;;;;;;26.27;4.25;;;5.80;99.90;;;;;;5048050;28;20037;-73
2022/01/30 02:05:15;;;;;;;24.35;4.30;;;5.80;99.90;;;;;;5031367;28;20051;-73
2022/01/30 02:10:45;;;;;;;26.60;4.75;;;5.80;99.90;;;;;;5047737;28;20381;-73
2022/01/30 02:24:30;;;;;;;32.97;5.10;;;5.80;99.90;;;;;;5081004;28;20052;-73
2022/01/30 02:26:56;;;;;;;33.78;5.30;;;5.80;99.90;;;;;;5048857;28;20041;-73
2022/01/30 02:29:22;;;;;;;25.50;4.05;;;5.70;99.90;;;;;;5063797;28;20073;-73
2022/01/30 02:31:55;;;;;;;24.00;4.10;;;5.90;99.90;;;;;;5041461;28;20075;-73
2022/01/30 02:34:30;;;;;;;25.00;4.78;;;5.90;99.90;;;;;;5046751;28;20068;-74
2022/01/30 02:36:58;;;;;;;27.20;3.83;;;5.90;99.90;;;;;;5049809;28;20095;-73
2022/01/30 02:39:25;;;;;;;38.50;5.70;;;6.00;99.90;;;;;;5080005;28;20055;-73
2022/01/30 02:41:50;;;;;;;29.35;6.00;;;6.10;99.90;;;;;;5049367;28;20041;-73
2022/01/30 02:44:37;;;;;;;31.27;5.68;;;6.10;99.90;;;;;;5048306;28;20517;-73
2022/01/30 02:47:22;;;;;;;30.05;4.60;;;6.10;99.90;;;;;;5048177;28;20045;-73
2022/01/30 02:50:11;;;;;;;32.17;5.25;;;6.20;99.90;;;;;;5046531;28;20091;-73
2022/01/30 02:52:40;;;;;;;29.80;4.95;;;6.20;99.90;;;;;;5079881;28;20051;-73
2022/01/30 02:55:06;;;;;;;29.30;4.80;;;6.20;99.90;;;;;;5080256;28;20482;-73
2022/01/30 02:57:32;;;;;;;35.42;4.93;;;6.20;99.90;;;;;;5077631;28;20037;-73
2022/01/30 02:59:58;;;;;;;26.92;3.88;;;6.20;99.90;;;;;;5047228;28;20059;-73
2022/01/30 03:02:23;;;;;;;27.67;5.00;;;6.20;99.90;;;;;;5049371;28;20037;-73
2022/01/30 03:04:49;;;;;;;31.98;5.38;;;6.20;99.90;;;;;;5079824;28;20473;-73
2022/01/30 03:07:14;;;;;;;22.73;5.68;;;6.20;99.90;;;;;;5048359;28;20044;-73
2022/01/30 03:09:40;;;;;;;23.48;3.90;;;6.20;99.90;;;;;;5046706;28;20048;-73
2022/01/30 03:12:06;;;;;;;29.23;4.72;;;6.20;99.90;;;;;;5047752;28;20044;-73
2022/01/30 03:14:32;;;;;;;24.58;3.85;;;6.20;99.90;;;;;;5047649;28;20491;-73
2022/01/30 03:16:58;;;;;;;26.52;4.32;;;6.20;99.90;;;;;;5049441;28;20075;-73
2022/01/30 03:19:24;;;;;;;22.85;3.60;;;6.10;99.90;;;;;;5045610;28;20106;-73
2022/01/30 03:21:49;;;;;;;19.23;3.92;;;6.30;99.90;;;;;;5081203;28;20052;-73
2022/01/30 03:24:15;;;;;;;19.55;3.50;;;6.20;99.90;;;;;;5047512;28;20040;-73
2022/01/30 03:26:41;;;;;;;24.30;4.47;;;6.20;99.90;;;;;;5046951;28;20032;-73
2022/01/30 03:29:08;;;;;;;30.95;4.55;;;6.20;99.90;;;;;;5046600;28;20051;-73
2022/01/30 03:31:39;;;;;;;28.42;4.28;;;6.20;99.90;;;;;;5049046;28;20048;-73
2022/01/30 03:34:10;;;;;;;32.17;6.90;;;6.20;99.90;;;;;;5049877;28;20045;-73
2022/01/30 03:36:36;;;;;;;28.88;5.25;;;6.20;99.90;;;;;;5042166;28;20084;-73
2022/01/30 03:39:04;;;;;;;33.78;5.72;;;6.10;99.90;;;;;;5048955;28;20048;-73
2022/01/30 03:41:30;;;;;;;31.98;5.78;;;6.10;99.90;;;;;;5049906;28;20511;-73
2022/01/30 03:43:55;;;;;;;29.58;4.70;;;6.10;99.90;;;;;;5048969;28;20049;-73
2022/01/30 03:46:23;;;;;;;31.95;5.55;;;6.10;99.90;;;;;;5049617;28;20491;-73
2022/01/30 03:48:49;;;;;;;43.78;7.03;;;6.00;99.90;;;;;;5048699;28;20041;-73
2022/01/30 03:51:14;;;;;;;35.97;6.55;;;6.00;99.90;;;;;;5050341;28;20037;-73
2022/01/30 03:53:41;;;;;;;32.90;5.97;;;6.00;99.90;;;;;;5048897;28;20049;-73
2022/01/30 03:56:07;;;;;;;35.40;6.53;;;6.10;99.90;;;;;;5049420;28;20118;-73
2022/01/30 03:58:33;;;;;;;31.52;5.40;;;6.10;99.90;;;;;;5049930;28;20547;-73
2022/01/30 04:00:59;;;;;;;31.70;5.93;;;6.00;99.90;;;;;;5049591;28;20533;-73
2022/01/30 04:03:25;;;;;;;30.75;5.25;;;6.00;99.90;;;;;;5048762;28;20041;-73
2022/01/30 04:05:51;;;;;;;35.55;7.38;;;6.00;99.90;;;;;;5049562;28;20123;-73
2022/01/30 04:08:34;;;;;;;40.88;5.97;;;6.00;99.90;;;;;;5079063;22;20059;-85
